sensor_id;sensor_type;location;lat;lon;timestamp;P1;durP1;ratioP1;P2;durP2;ratioP2
19482;SDS011;9882;51.166;6.992;2022-11-20T00:01:36;20.45;;;9.00;;
19482;SDS011;9882;51.166;6.992;2022-11-20T00:04:05;21.52;;;9.02;;
19482;SDS011;9882;51.166;6.992;2022-11-20T00:06:34;21.65;;;8.63;;
19482;SDS011;9882;51.166;6.992;2022-11-20T00:09:02;22.52;;;8.82;;
19482;SDS011;9882;51.166;6.992;2022-11-20T00:11:32;21.92;;;8.43;;
19482;SDS011;9882;51.166;6.992;2022-11-20T00:14:01;21.15;;;8.30;;
19482;SDS011;9882;51.166;6.992;2022-11-20T00:16:31;22.30;;;8.35;;
19482;SDS011;9882;51.166;6.992;2022-11-20T00:19:01;22.63;;;8.80;;
19482;SDS011;9882;51.166;6.992;2022-11-20T00:21:39;21.10;;;8.48;;
19482;SDS011;9882;51.166;6.992;2022-11-20T00:24:08;24.88;;;9.75;;
19482;SDS011;9882;51.166;6.992;2022-11-20T00:26:43;22.83;;;9.05;;
19482;SDS011;9882;51.166;6.992;2022-11-20T00:29:13;22.52;;;9.20;;
19482;SDS011;9882;51.166;6.992;2022-11-20T00:31:44;23.13;;;9.38;;
19482;SDS011;9882;51.166;6.992;2022-11-20T00:34:21;20.83;;;9.02;;
19482;SDS011;9882;51.166;6.992;2022-11-20T00:36:53;27.83;;;10.35;;
19482;SDS011;9882;51.166;6.992;2022-11-20T00:40:14;22.83;;;8.88;;
19482;SDS011;9882;51.166;6.992;2022-11-20T00:42:53;22.52;;;9.68;;
19482;SDS011;9882;51.166;6.992;2022-11-20T00:45:28;26.25;;;9.45;;
19482;SDS011;9882;51.166;6.992;2022-11-20T00:48:04;22.15;;;9.05;;
19482;SDS011;9882;51.166;6.992;2022-11-20T00:50:40;22.25;;;9.23;;
19482;SDS011;9882;51.166;6.992;2022-11-20T00:53:11;23.77;;;9.40;;
19482;SDS011;9882;51.166;6.992;2022-11-20T00:56:20;25.80;;;10.32;;
19482;SDS011;9882;51.166;6.992;2022-11-20T00:58:53;24.45;;;9.65;;
19482;SDS011;9882;51.166;6.992;2022-11-20T01:01:29;24.33;;;8.88;;
19482;SDS011;9882;51.166;6.992;2022-11-20T01:03:59;26.33;;;9.80;;
19482;SDS011;9882;51.166;6.992;2022-11-20T01:06:28;25.67;;;9.70;;
19482;SDS011;9882;51.166;6.992;2022-11-20T01:09:01;26.02;;;10.02;;
19482;SDS011;9882;51.166;6.992;2022-11-20T01:11:32;22.85;;;9.57;;
19482;SDS011;9882;51.166;6.992;2022-11-20T01:14:06;28.42;;;10.60;;
19482;SDS011;9882;51.166;6.992;2022-11-20T01:16:40;29.63;;;10.32;;
19482;SDS011;9882;51.166;6.992;2022-11-20T01:19:12;28.23;;;10.35;;
19482;SDS011;9882;51.166;6.992;2022-11-20T01:21:50;24.77;;;9.70;;
19482;SDS011;9882;51.166;6.992;2022-11-20T01:24:24;23.58;;;9.32;;
19482;SDS011;9882;51.166;6.992;2022-11-20T01:27:02;26.42;;;10.73;;
19482;SDS011;9882;51.166;6.992;2022-11-20T01:29:35;24.92;;;9.57;;
19482;SDS011;9882;51.166;6.992;2022-11-20T01:32:04;27.33;;;9.75;;
19482;SDS011;9882;51.166;6.992;2022-11-20T01:34:43;26.40;;;9.20;;
19482;SDS011;9882;51.166;6.992;2022-11-20T01:37:12;30.48;;;10.48;;
19482;SDS011;9882;51.166;6.992;2022-11-20T01:39:41;26.15;;;10.45;;
19482;SDS011;9882;51.166;6.992;2022-11-20T01:42:18;30.52;;;10.48;;
19482;SDS011;9882;51.166;6.992;2022-11-20T01:48:09;24.83;;;9.52;;
19482;SDS011;9882;51.166;6.992;2022-11-20T01:50:40;26.33;;;9.48;;
19482;SDS011;9882;51.166;6.992;2022-11-20T01:53:09;25.65;;;9.20;;
19482;SDS011;9882;51.166;6.992;2022-11-20T01:55:43;26.23;;;9.90;;
19482;SDS011;9882;51.166;6.992;2022-11-20T01:58:16;24.85;;;10.40;;
19482;SDS011;9882;51.166;6.992;2022-11-20T02:00:45;27.52;;;10.35;;
19482;SDS011;9882;51.166;6.992;2022-11-20T02:03:15;27.15;;;10.13;;
19482;SDS011;9882;51.166;6.992;2022-11-20T02:05:47;28.20;;;11.05;;
19482;SDS011;9882;51.166;6.992;2022-11-20T02:08:19;23.30;;;9.73;;
19482;SDS011;9882;51.166;6.992;2022-11-20T02:10:48;27.83;;;9.55;;
19482;SDS011;9882;51.166;6.992;2022-11-20T02:13:17;30.85;;;11.13;;
19482;SDS011;9882;51.166;6.992;2022-11-20T02:16:03;28.70;;;10.40;;
19482;SDS011;9882;51.166;6.992;2022-11-20T02:18:33;30.38;;;9.77;;
19482;SDS011;9882;51.166;6.992;2022-11-20T02:21:03;24.27;;;10.13;;
19482;SDS011;9882;51.166;6.992;2022-11-20T02:23:38;33.70;;;12.23;;
19482;SDS011;9882;51.166;6.992;2022-11-20T02:26:10;27.05;;;10.63;;
19482;SDS011;9882;51.166;6.992;2022-11-20T02:28:40;23.95;;;9.65;;
19482;SDS011;9882;51.166;6.992;2022-11-20T02:31:09;23.98;;;10.00;;
19482;SDS011;9882;51.166;6.992;2022-11-20T02:33:38;28.15;;;11.02;;
19482;SDS011;9882;51.166;6.992;2022-11-20T02:36:07;28.48;;;10.27;;
19482;SDS011;9882;51.166;6.992;2022-11-20T02:38:39;26.30;;;9.85;;
19482;SDS011;9882;51.166;6.992;2022-11-20T02:41:09;26.88;;;11.13;;
19482;SDS011;9882;51.166;6.992;2022-11-20T02:43:37;28.80;;;10.30;;
19482;SDS011;9882;51.166;6.992;2022-11-20T02:46:06;26.70;;;10.45;;
19482;SDS011;9882;51.166;6.992;2022-11-20T02:48:35;28.58;;;10.15;;
19482;SDS011;9882;51.166;6.992;2022-11-20T02:51:04;31.08;;;10.60;;
19482;SDS011;9882;51.166;6.992;2022-11-20T02:53:32;25.92;;;9.70;;
19482;SDS011;9882;51.166;6.992;2022-11-20T02:56:01;26.52;;;10.10;;
19482;SDS011;9882;51.166;6.992;2022-11-20T02:58:30;27.50;;;9.98;;
19482;SDS011;9882;51.166;6.992;2022-11-20T03:00:59;25.35;;;9.98;;
19482;SDS011;9882;51.166;6.992;2022-11-20T03:03:28;26.77;;;10.23;;
19482;SDS011;9882;51.166;6.992;2022-11-20T03:05:58;23.65;;;9.73;;
19482;SDS011;9882;51.166;6.992;2022-11-20T03:08:26;31.58;;;11.32;;
19482;SDS011;9882;51.166;6.992;2022-11-20T03:10:55;29.75;;;11.13;;
19482;SDS011;9882;51.166;6.992;2022-11-20T03:13:24;27.00;;;10.18;;
19482;SDS011;9882;51.166;6.992;2022-11-20T03:15:54;25.70;;;10.32;;
19482;SDS011;9882;51.166;6.992;2022-11-20T03:18:22;27.25;;;10.18;;
19482;SDS011;9882;51.166;6.992;2022-11-20T03:20:56;23.15;;;9.20;;
19482;SDS011;9882;51.166;6.992;2022-11-20T03:23:25;24.63;;;9.73;;
19482;SDS011;9882;51.166;6.992;2022-11-20T03:25:56;27.67;;;10.95;;
19482;SDS011;9882;51.166;6.992;2022-11-20T03:28:34;27.65;;;10.10;;
19482;SDS011;9882;51.166;6.992;2022-11-20T03:31:08;26.45;;;9.93;;
19482;SDS011;9882;51.166;6.992;2022-11-20T03:33:38;32.40;;;11.13;;
19482;SDS011;9882;51.166;6.992;2022-11-20T03:36:08;26.42;;;10.88;;
19482;SDS011;9882;51.166;6.992;2022-11-20T03:38:39;28.42;;;11.55;;
19482;SDS011;9882;51.166;6.992;2022-11-20T03:41:09;26.55;;;10.75;;
19482;SDS011;9882;51.166;6.992;2022-11-20T03:43:39;26.10;;;10.70;;
19482;SDS011;9882;51.166;6.992;2022-11-20T03:46:09;27.35;;;10.27;;
19482;SDS011;9882;51.166;6.992;2022-11-20T03:48:37;25.42;;;10.05;;
19482;SDS011;9882;51.166;6.992;2022-11-20T03:51:06;28.08;;;10.55;;
19482;SDS011;9882;51.166;6.992;2022-11-20T03:53:36;26.15;;;10.32;;
19482;SDS011;9882;51.166;6.992;2022-11-20T03:56:05;25.30;;;9.85;;
19482;SDS011;9882;51.166;6.992;2022-11-20T03:58:34;28.23;;;10.07;;
19482;SDS011;9882;51.166;6.992;2022-11-20T04:01:04;25.58;;;9.65;;
19482;SDS011;9882;51.166;6.992;2022-11-20T04:03:35;22.73;;;9.63;;
19482;SDS011;9882;51.166;6.992;2022-11-20T04:06:05;24.80;;;10.02;;
19482;SDS011;9882;51.166;6.992;2022-11-20T04:08:35;27.13;;;9.63;;
19482;SDS011;9882;51.166;6.992;2022-11-20T04:11:08;27.67;;;10.52;;
19482;SDS011;9882;51.166;6.992;2022-11-20T04:13:40;30.30;;;11.70;;
19482;SDS011;9882;51.166;6.992;2022-11-20T04:16:09;24.05;;;9.98;;
19482;SDS011;9882;51.166;6.992;2022-11-20T04:18:39;23.45;;;9.15;;
19482;SDS011;9882;51.166;6.992;2022-11-20T04:21:08;25.67;;;9.77;;
19482;SDS011;9882;51.166;6.992;2022-11-20T04:23:37;25.67;;;9.65;;
19482;SDS011;9882;51.166;6.992;2022-11-20T04:26:07;24.92;;;9.45;;
19482;SDS011;9882;51.166;6.992;2022-11-20T04:28:38;27.05;;;9.95;;
19482;SDS011;9882;51.166;6.992;2022-11-20T04:31:07;24.65;;;9.18;;
19482;SDS011;9882;51.166;6.992;2022-11-20T04:33:37;28.50;;;10.68;;
19482;SDS011;9882;51.166;6.992;2022-11-20T04:36:10;26.30;;;9.05;;
19482;SDS011;9882;51.166;6.992;2022-11-20T04:38:40;25.42;;;10.05;;
19482;SDS011;9882;51.166;6.992;2022-11-20T04:41:11;25.85;;;9.90;;
19482;SDS011;9882;51.166;6.992;2022-11-20T04:43:45;23.30;;;9.50;;
19482;SDS011;9882;51.166;6.992;2022-11-20T04:46:15;28.63;;;10.70;;
19482;SDS011;9882;51.166;6.992;2022-11-20T04:48:46;27.25;;;9.52;;
19482;SDS011;9882;51.166;6.992;2022-11-20T04:51:15;26.40;;;10.13;;
19482;SDS011;9882;51.166;6.992;2022-11-20T04:53:43;27.67;;;10.57;;
19482;SDS011;9882;51.166;6.992;2022-11-20T04:56:12;22.95;;;8.52;;
19482;SDS011;9882;51.166;6.992;2022-11-20T04:58:41;25.55;;;9.38;;
19482;SDS011;9882;51.166;6.992;2022-11-20T05:01:11;29.10;;;9.90;;
19482;SDS011;9882;51.166;6.992;2022-11-20T05:03:40;25.23;;;8.45;;
19482;SDS011;9882;51.166;6.992;2022-11-20T05:06:12;22.35;;;8.90;;
19482;SDS011;9882;51.166;6.992;2022-11-20T05:08:42;24.63;;;10.05;;
19482;SDS011;9882;51.166;6.992;2022-11-20T05:11:11;27.60;;;10.27;;
19482;SDS011;9882;51.166;6.992;2022-11-20T05:13:41;25.98;;;9.23;;
19482;SDS011;9882;51.166;6.992;2022-11-20T05:16:10;23.65;;;9.18;;
19482;SDS011;9882;51.166;6.992;2022-11-20T05:18:40;27.27;;;9.32;;
19482;SDS011;9882;51.166;6.992;2022-11-20T05:21:09;24.25;;;9.70;;
19482;SDS011;9882;51.166;6.992;2022-11-20T05:23:40;28.00;;;10.00;;
19482;SDS011;9882;51.166;6.992;2022-11-20T05:26:12;28.05;;;9.13;;
19482;SDS011;9882;51.166;6.992;2022-11-20T05:28:42;26.33;;;9.88;;
19482;SDS011;9882;51.166;6.992;2022-11-20T05:31:11;25.20;;;9.90;;
19482;SDS011;9882;51.166;6.992;2022-11-20T05:33:41;25.17;;;9.20;;
19482;SDS011;9882;51.166;6.992;2022-11-20T05:36:12;22.35;;;8.98;;
19482;SDS011;9882;51.166;6.992;2022-11-20T05:38:42;22.60;;;9.13;;
19482;SDS011;9882;51.166;6.992;2022-11-20T05:41:13;23.08;;;9.02;;
19482;SDS011;9882;51.166;6.992;2022-11-20T05:43:43;26.60;;;9.57;;
19482;SDS011;9882;51.166;6.992;2022-11-20T05:46:13;23.98;;;9.00;;
19482;SDS011;9882;51.166;6.992;2022-11-20T05:48:43;22.80;;;8.98;;
19482;SDS011;9882;51.166;6.992;2022-11-20T05:51:14;25.55;;;9.77;;
19482;SDS011;9882;51.166;6.992;2022-11-20T05:53:44;22.60;;;8.95;;
19482;SDS011;9882;51.166;6.992;2022-11-20T05:56:14;27.73;;;10.88;;
19482;SDS011;9882;51.166;6.992;2022-11-20T05:58:44;25.08;;;9.23;;
19482;SDS011;9882;51.166;6.992;2022-11-20T06:01:14;26.67;;;10.32;;
19482;SDS011;9882;51.166;6.992;2022-11-20T06:03:44;26.42;;;10.35;;
19482;SDS011;9882;51.166;6.992;2022-11-20T06:06:16;25.48;;;9.65;;
19482;SDS011;9882;51.166;6.992;2022-11-20T06:08:45;25.25;;;8.95;;
19482;SDS011;9882;51.166;6.992;2022-11-20T06:11:14;33.30;;;10.10;;
19482;SDS011;9882;51.166;6.992;2022-11-20T06:13:43;29.00;;;10.55;;
19482;SDS011;9882;51.166;6.992;2022-11-20T06:16:13;26.40;;;9.45;;
19482;SDS011;9882;51.166;6.992;2022-11-20T06:18:43;24.67;;;9.43;;
19482;SDS011;9882;51.166;6.992;2022-11-20T06:21:12;23.92;;;9.27;;
19482;SDS011;9882;51.166;6.992;2022-11-20T06:23:44;23.48;;;9.20;;
19482;SDS011;9882;51.166;6.992;2022-11-20T06:26:14;28.58;;;10.75;;
19482;SDS011;9882;51.166;6.992;2022-11-20T06:28:44;28.73;;;10.60;;
19482;SDS011;9882;51.166;6.992;2022-11-20T06:31:14;25.20;;;9.43;;
19482;SDS011;9882;51.166;6.992;2022-11-20T06:33:44;25.60;;;10.35;;
19482;SDS011;9882;51.166;6.992;2022-11-20T06:36:13;25.83;;;9.82;;
19482;SDS011;9882;51.166;6.992;2022-11-20T06:38:44;28.00;;;9.55;;
19482;SDS011;9882;51.166;6.992;2022-11-20T06:41:14;25.42;;;9.80;;
19482;SDS011;9882;51.166;6.992;2022-11-20T06:43:44;26.92;;;9.98;;
19482;SDS011;9882;51.166;6.992;2022-11-20T06:46:17;27.23;;;9.23;;
19482;SDS011;9882;51.166;6.992;2022-11-20T06:48:47;28.27;;;10.50;;
19482;SDS011;9882;51.166;6.992;2022-11-20T06:51:18;29.45;;;10.48;;
19482;SDS011;9882;51.166;6.992;2022-11-20T06:53:49;21.45;;;8.55;;
19482;SDS011;9882;51.166;6.992;2022-11-20T06:56:17;26.98;;;10.10;;
19482;SDS011;9882;51.166;6.992;2022-11-20T06:58:46;26.88;;;9.82;;
19482;SDS011;9882;51.166;6.992;2022-11-20T07:01:14;28.05;;;10.45;;
19482;SDS011;9882;51.166;6.992;2022-11-20T07:03:43;25.10;;;9.68;;
19482;SDS011;9882;51.166;6.992;2022-11-20T07:06:13;25.30;;;10.43;;
19482;SDS011;9882;51.166;6.992;2022-11-20T07:08:42;24.42;;;9.55;;
19482;SDS011;9882;51.166;6.992;2022-11-20T07:11:12;25.10;;;9.70;;
19482;SDS011;9882;51.166;6.992;2022-11-20T07:13:40;27.13;;;10.43;;
19482;SDS011;9882;51.166;6.992;2022-11-20T07:16:09;23.38;;;9.20;;
19482;SDS011;9882;51.166;6.992;2022-11-20T07:18:37;28.02;;;9.82;;
19482;SDS011;9882;51.166;6.992;2022-11-20T07:21:07;28.85;;;10.98;;
19482;SDS011;9882;51.166;6.992;2022-11-20T07:23:37;27.73;;;9.98;;
19482;SDS011;9882;51.166;6.992;2022-11-20T07:26:06;28.52;;;9.65;;
19482;SDS011;9882;51.166;6.992;2022-11-20T07:28:43;24.73;;;10.07;;
19482;SDS011;9882;51.166;6.992;2022-11-20T07:31:14;27.80;;;11.30;;
19482;SDS011;9882;51.166;6.992;2022-11-20T07:33:45;23.88;;;10.18;;
19482;SDS011;9882;51.166;6.992;2022-11-20T07:36:16;27.50;;;10.23;;
19482;SDS011;9882;51.166;6.992;2022-11-20T07:39:20;28.45;;;10.25;;
19482;SDS011;9882;51.166;6.992;2022-11-20T07:41:49;27.55;;;10.63;;
19482;SDS011;9882;51.166;6.992;2022-11-20T07:44:22;24.67;;;9.40;;
19482;SDS011;9882;51.166;6.992;2022-11-20T07:46:54;27.80;;;10.15;;
19482;SDS011;9882;51.166;6.992;2022-11-20T07:55:47;24.13;;;9.68;;
19482;SDS011;9882;51.166;6.992;2022-11-20T07:58:16;26.80;;;9.90;;
19482;SDS011;9882;51.166;6.992;2022-11-20T08:00:45;24.88;;;10.38;;
19482;SDS011;9882;51.166;6.992;2022-11-20T08:03:14;30.50;;;10.35;;
19482;SDS011;9882;51.166;6.992;2022-11-20T08:15:14;29.60;;;11.18;;
19482;SDS011;9882;51.166;6.992;2022-11-20T08:18:08;25.33;;;10.35;;
19482;SDS011;9882;51.166;6.992;2022-11-20T08:21:23;28.73;;;10.15;;
19482;SDS011;9882;51.166;6.992;2022-11-20T08:23:52;24.50;;;9.70;;
19482;SDS011;9882;51.166;6.992;2022-11-20T08:26:20;25.20;;;10.35;;
19482;SDS011;9882;51.166;6.992;2022-11-20T08:28:53;24.60;;;10.13;;
19482;SDS011;9882;51.166;6.992;2022-11-20T08:31:23;26.45;;;10.93;;
19482;SDS011;9882;51.166;6.992;2022-11-20T08:33:58;25.63;;;9.93;;
19482;SDS011;9882;51.166;6.992;2022-11-20T08:36:28;30.15;;;10.70;;
19482;SDS011;9882;51.166;6.992;2022-11-20T08:38:56;25.85;;;10.63;;
19482;SDS011;9882;51.166;6.992;2022-11-20T08:41:24;26.63;;;10.75;;
19482;SDS011;9882;51.166;6.992;2022-11-20T08:43:55;28.92;;;11.23;;
19482;SDS011;9882;51.166;6.992;2022-11-20T08:46:25;33.17;;;11.90;;
19482;SDS011;9882;51.166;6.992;2022-11-20T08:48:54;31.85;;;11.20;;
19482;SDS011;9882;51.166;6.992;2022-11-20T08:51:25;31.40;;;10.70;;
19482;SDS011;9882;51.166;6.992;2022-11-20T08:53:57;32.25;;;11.73;;
19482;SDS011;9882;51.166;6.992;2022-11-20T08:56:28;33.70;;;11.27;;
19482;SDS011;9882;51.166;6.992;2022-11-20T08:58:57;31.17;;;11.73;;
19482;SDS011;9882;51.166;6.992;2022-11-20T09:01:46;27.08;;;10.10;;
19482;SDS011;9882;51.166;6.992;2022-11-20T09:04:14;29.95;;;10.50;;
19482;SDS011;9882;51.166;6.992;2022-11-20T09:06:44;29.10;;;10.43;;
19482;SDS011;9882;51.166;6.992;2022-11-20T09:09:17;30.02;;;11.50;;
19482;SDS011;9882;51.166;6.992;2022-11-20T09:11:46;26.10;;;11.13;;
19482;SDS011;9882;51.166;6.992;2022-11-20T09:14:16;28.65;;;11.13;;
19482;SDS011;9882;51.166;6.992;2022-11-20T09:16:45;28.15;;;10.93;;
19482;SDS011;9882;51.166;6.992;2022-11-20T09:19:13;27.20;;;11.27;;
19482;SDS011;9882;51.166;6.992;2022-11-20T09:22:03;23.98;;;9.93;;
19482;SDS011;9882;51.166;6.992;2022-11-20T09:24:32;26.25;;;10.15;;
19482;SDS011;9882;51.166;6.992;2022-11-20T09:27:01;30.38;;;10.50;;
19482;SDS011;9882;51.166;6.992;2022-11-20T09:29:31;24.92;;;10.25;;
19482;SDS011;9882;51.166;6.992;2022-11-20T09:31:59;29.17;;;10.02;;
19482;SDS011;9882;51.166;6.992;2022-11-20T09:34:28;31.77;;;10.70;;
19482;SDS011;9882;51.166;6.992;2022-11-20T09:36:56;29.27;;;11.40;;
19482;SDS011;9882;51.166;6.992;2022-11-20T09:39:27;29.58;;;11.05;;
19482;SDS011;9882;51.166;6.992;2022-11-20T09:44:57;42.35;;;12.25;;
19482;SDS011;9882;51.166;6.992;2022-11-20T09:47:41;27.58;;;10.70;;
19482;SDS011;9882;51.166;6.992;2022-11-20T09:50:26;30.70;;;11.02;;
19482;SDS011;9882;51.166;6.992;2022-11-20T09:53:03;26.77;;;10.93;;
19482;SDS011;9882;51.166;6.992;2022-11-20T09:55:41;29.55;;;11.60;;
19482;SDS011;9882;51.166;6.992;2022-11-20T09:58:12;27.70;;;10.25;;
19482;SDS011;9882;51.166;6.992;2022-11-20T10:00:47;28.92;;;10.55;;
19482;SDS011;9882;51.166;6.992;2022-11-20T10:03:18;27.85;;;10.68;;
19482;SDS011;9882;51.166;6.992;2022-11-20T10:05:53;30.70;;;12.02;;
19482;SDS011;9882;51.166;6.992;2022-11-20T10:08:23;27.63;;;10.88;;
19482;SDS011;9882;51.166;6.992;2022-11-20T10:10:58;27.27;;;10.27;;
19482;SDS011;9882;51.166;6.992;2022-11-20T10:13:35;27.60;;;11.23;;
19482;SDS011;9882;51.166;6.992;2022-11-20T10:16:17;24.80;;;10.15;;
19482;SDS011;9882;51.166;6.992;2022-11-20T10:18:57;22.77;;;9.50;;
19482;SDS011;9882;51.166;6.992;2022-11-20T10:21:38;25.05;;;10.40;;
19482;SDS011;9882;51.166;6.992;2022-11-20T10:24:24;30.50;;;11.25;;
19482;SDS011;9882;51.166;6.992;2022-11-20T10:27:19;27.52;;;10.93;;
19482;SDS011;9882;51.166;6.992;2022-11-20T10:30:03;30.20;;;11.50;;
19482;SDS011;9882;51.166;6.992;2022-11-20T10:32:37;25.10;;;10.07;;
19482;SDS011;9882;51.166;6.992;2022-11-20T10:35:14;28.05;;;10.00;;
19482;SDS011;9882;51.166;6.992;2022-11-20T10:37:49;29.13;;;10.52;;
19482;SDS011;9882;51.166;6.992;2022-11-20T10:40:23;26.25;;;10.25;;
19482;SDS011;9882;51.166;6.992;2022-11-20T10:42:59;25.45;;;9.38;;
19482;SDS011;9882;51.166;6.992;2022-11-20T10:45:36;28.63;;;10.18;;
19482;SDS011;9882;51.166;6.992;2022-11-20T10:48:16;29.75;;;11.18;;
19482;SDS011;9882;51.166;6.992;2022-11-20T10:50:52;30.20;;;11.98;;
19482;SDS011;9882;51.166;6.992;2022-11-20T10:53:38;27.45;;;9.10;;
19482;SDS011;9882;51.166;6.992;2022-11-20T10:56:16;25.95;;;10.13;;
19482;SDS011;9882;51.166;6.992;2022-11-20T10:58:52;26.77;;;10.13;;
19482;SDS011;9882;51.166;6.992;2022-11-20T11:01:30;25.58;;;10.85;;
19482;SDS011;9882;51.166;6.992;2022-11-20T11:03:58;28.25;;;9.68;;
19482;SDS011;9882;51.166;6.992;2022-11-20T11:06:29;24.95;;;9.27;;
19482;SDS011;9882;51.166;6.992;2022-11-20T11:09:04;32.38;;;11.93;;
19482;SDS011;9882;51.166;6.992;2022-11-20T11:11:39;33.95;;;11.30;;
19482;SDS011;9882;51.166;6.992;2022-11-20T11:14:10;27.65;;;11.27;;
19482;SDS011;9882;51.166;6.992;2022-11-20T11:16:48;24.88;;;9.80;;
19482;SDS011;9882;51.166;6.992;2022-11-20T11:19:18;23.85;;;10.10;;
19482;SDS011;9882;51.166;6.992;2022-11-20T11:21:49;28.73;;;10.07;;
19482;SDS011;9882;51.166;6.992;2022-11-20T11:24:21;25.58;;;9.75;;
19482;SDS011;9882;51.166;6.992;2022-11-20T11:27:10;28.08;;;10.25;;
19482;SDS011;9882;51.166;6.992;2022-11-20T11:29:44;27.13;;;9.75;;
19482;SDS011;9882;51.166;6.992;2022-11-20T11:32:13;27.42;;;10.20;;
19482;SDS011;9882;51.166;6.992;2022-11-20T11:34:44;28.15;;;11.55;;
19482;SDS011;9882;51.166;6.992;2022-11-20T11:37:13;24.25;;;9.55;;
19482;SDS011;9882;51.166;6.992;2022-11-20T11:39:45;27.15;;;10.02;;
19482;SDS011;9882;51.166;6.992;2022-11-20T11:42:21;24.25;;;9.65;;
19482;SDS011;9882;51.166;6.992;2022-11-20T11:44:51;29.35;;;11.48;;
19482;SDS011;9882;51.166;6.992;2022-11-20T11:47:35;27.17;;;10.95;;
19482;SDS011;9882;51.166;6.992;2022-11-20T11:50:13;34.13;;;10.88;;
19482;SDS011;9882;51.166;6.992;2022-11-20T11:52:44;27.17;;;9.32;;
19482;SDS011;9882;51.166;6.992;2022-11-20T11:55:21;25.40;;;10.10;;
19482;SDS011;9882;51.166;6.992;2022-11-20T11:57:59;25.17;;;9.27;;
19482;SDS011;9882;51.166;6.992;2022-11-20T12:00:39;24.17;;;10.55;;
19482;SDS011;9882;51.166;6.992;2022-11-20T12:03:18;29.75;;;11.57;;
19482;SDS011;9882;51.166;6.992;2022-11-20T12:05:50;27.88;;;11.45;;
19482;SDS011;9882;51.166;6.992;2022-11-20T12:08:26;24.08;;;9.57;;
19482;SDS011;9882;51.166;6.992;2022-11-20T12:11:01;25.95;;;10.13;;
19482;SDS011;9882;51.166;6.992;2022-11-20T12:13:36;25.27;;;10.27;;
19482;SDS011;9882;51.166;6.992;2022-11-20T12:16:14;28.45;;;10.45;;
19482;SDS011;9882;51.166;6.992;2022-11-20T12:18:45;26.33;;;11.35;;
19482;SDS011;9882;51.166;6.992;2022-11-20T12:21:20;34.85;;;12.95;;
19482;SDS011;9882;51.166;6.992;2022-11-20T12:24:00;27.92;;;11.32;;
19482;SDS011;9882;51.166;6.992;2022-11-20T12:26:42;29.05;;;11.60;;
19482;SDS011;9882;51.166;6.992;2022-11-20T12:29:18;27.77;;;11.18;;
19482;SDS011;9882;51.166;6.992;2022-11-20T12:31:59;28.83;;;10.65;;
19482;SDS011;9882;51.166;6.992;2022-11-20T12:34:44;28.52;;;11.52;;
19482;SDS011;9882;51.166;6.992;2022-11-20T12:37:25;34.75;;;12.63;;
19482;SDS011;9882;51.166;6.992;2022-11-20T12:40:09;27.75;;;11.15;;
19482;SDS011;9882;51.166;6.992;2022-11-20T12:42:59;33.38;;;12.38;;
19482;SDS011;9882;51.166;6.992;2022-11-20T12:46:06;31.50;;;12.68;;
19482;SDS011;9882;51.166;6.992;2022-11-20T12:48:46;29.95;;;11.50;;
19482;SDS011;9882;51.166;6.992;2022-11-20T12:51:39;28.15;;;11.27;;
19482;SDS011;9882;51.166;6.992;2022-11-20T12:54:38;30.30;;;11.27;;
19482;SDS011;9882;51.166;6.992;2022-11-20T12:57:32;26.52;;;11.07;;
19482;SDS011;9882;51.166;6.992;2022-11-20T13:00:14;34.03;;;12.75;;
19482;SDS011;9882;51.166;6.992;2022-11-20T13:02:54;31.10;;;11.23;;
19482;SDS011;9882;51.166;6.992;2022-11-20T13:05:39;29.48;;;10.27;;
19482;SDS011;9882;51.166;6.992;2022-11-20T13:08:19;32.00;;;10.90;;
19482;SDS011;9882;51.166;6.992;2022-11-20T13:10:51;27.20;;;10.75;;
19482;SDS011;9882;51.166;6.992;2022-11-20T13:13:28;33.88;;;12.23;;
19482;SDS011;9882;51.166;6.992;2022-11-20T13:16:02;31.23;;;11.75;;
19482;SDS011;9882;51.166;6.992;2022-11-20T13:18:36;29.70;;;11.65;;
19482;SDS011;9882;51.166;6.992;2022-11-20T13:21:14;31.02;;;11.05;;
19482;SDS011;9882;51.166;6.992;2022-11-20T13:23:44;29.08;;;11.48;;
19482;SDS011;9882;51.166;6.992;2022-11-20T13:26:17;32.50;;;13.68;;
19482;SDS011;9882;51.166;6.992;2022-11-20T13:28:47;27.25;;;11.60;;
19482;SDS011;9882;51.166;6.992;2022-11-20T13:31:28;29.30;;;11.43;;
19482;SDS011;9882;51.166;6.992;2022-11-20T13:34:00;32.95;;;11.93;;
19482;SDS011;9882;51.166;6.992;2022-11-20T13:36:32;33.33;;;12.82;;
19482;SDS011;9882;51.166;6.992;2022-11-20T13:39:03;33.60;;;13.20;;
19482;SDS011;9882;51.166;6.992;2022-11-20T13:41:32;30.45;;;12.30;;
19482;SDS011;9882;51.166;6.992;2022-11-20T13:44:05;39.17;;;13.40;;
19482;SDS011;9882;51.166;6.992;2022-11-20T13:46:41;35.75;;;14.18;;
19482;SDS011;9882;51.166;6.992;2022-11-20T13:49:16;34.72;;;13.45;;
19482;SDS011;9882;51.166;6.992;2022-11-20T13:51:48;32.88;;;12.43;;
19482;SDS011;9882;51.166;6.992;2022-11-20T13:54:33;36.00;;;13.57;;
19482;SDS011;9882;51.166;6.992;2022-11-20T14:00:13;31.05;;;12.88;;
19482;SDS011;9882;51.166;6.992;2022-11-20T14:02:44;30.92;;;12.55;;
19482;SDS011;9882;51.166;6.992;2022-11-20T14:05:20;30.17;;;11.95;;
19482;SDS011;9882;51.166;6.992;2022-11-20T14:07:52;32.47;;;12.55;;
19482;SDS011;9882;51.166;6.992;2022-11-20T14:10:22;33.67;;;12.90;;
19482;SDS011;9882;51.166;6.992;2022-11-20T14:12:55;33.33;;;13.20;;
19482;SDS011;9882;51.166;6.992;2022-11-20T14:15:25;40.95;;;16.10;;
19482;SDS011;9882;51.166;6.992;2022-11-20T14:17:56;41.33;;;16.63;;
19482;SDS011;9882;51.166;6.992;2022-11-20T14:20:25;26.48;;;11.85;;
19482;SDS011;9882;51.166;6.992;2022-11-20T14:22:57;33.92;;;12.70;;
19482;SDS011;9882;51.166;6.992;2022-11-20T14:25:26;34.00;;;13.10;;
19482;SDS011;9882;51.166;6.992;2022-11-20T14:27:55;39.72;;;14.05;;
19482;SDS011;9882;51.166;6.992;2022-11-20T14:30:26;34.13;;;12.07;;
19482;SDS011;9882;51.166;6.992;2022-11-20T14:32:57;46.33;;;17.00;;
19482;SDS011;9882;51.166;6.992;2022-11-20T14:35:30;32.28;;;12.60;;
19482;SDS011;9882;51.166;6.992;2022-11-20T14:38:03;31.73;;;13.45;;
19482;SDS011;9882;51.166;6.992;2022-11-20T14:40:36;36.17;;;12.75;;
19482;SDS011;9882;51.166;6.992;2022-11-20T14:43:15;34.90;;;15.43;;
19482;SDS011;9882;51.166;6.992;2022-11-20T14:45:48;38.92;;;16.15;;
19482;SDS011;9882;51.166;6.992;2022-11-20T14:48:25;43.63;;;17.63;;
19482;SDS011;9882;51.166;6.992;2022-11-20T14:50:59;35.28;;;13.38;;
19482;SDS011;9882;51.166;6.992;2022-11-20T14:53:29;31.80;;;13.15;;
19482;SDS011;9882;51.166;6.992;2022-11-20T14:55:58;34.55;;;13.68;;
19482;SDS011;9882;51.166;6.992;2022-11-20T14:58:28;35.65;;;12.55;;
19482;SDS011;9882;51.166;6.992;2022-11-20T15:00:59;35.95;;;12.98;;
19482;SDS011;9882;51.166;6.992;2022-11-20T15:03:32;33.00;;;13.23;;
19482;SDS011;9882;51.166;6.992;2022-11-20T15:06:02;30.38;;;13.13;;
19482;SDS011;9882;51.166;6.992;2022-11-20T15:08:32;34.33;;;13.27;;
19482;SDS011;9882;51.166;6.992;2022-11-20T15:11:02;40.38;;;13.27;;
19482;SDS011;9882;51.166;6.992;2022-11-20T15:13:31;33.05;;;14.05;;
19482;SDS011;9882;51.166;6.992;2022-11-20T15:16:08;34.47;;;12.77;;
19482;SDS011;9882;51.166;6.992;2022-11-20T15:18:46;33.83;;;12.75;;
19482;SDS011;9882;51.166;6.992;2022-11-20T15:21:16;31.20;;;12.57;;
19482;SDS011;9882;51.166;6.992;2022-11-20T15:23:50;32.70;;;13.40;;
19482;SDS011;9882;51.166;6.992;2022-11-20T15:26:24;30.55;;;12.95;;
19482;SDS011;9882;51.166;6.992;2022-11-20T15:29:00;33.50;;;12.95;;
19482;SDS011;9882;51.166;6.992;2022-11-20T15:31:37;30.17;;;12.98;;
19482;SDS011;9882;51.166;6.992;2022-11-20T15:34:20;30.90;;;12.40;;
19482;SDS011;9882;51.166;6.992;2022-11-20T15:42:44;31.25;;;13.32;;
19482;SDS011;9882;51.166;6.992;2022-11-20T15:45:26;31.35;;;12.18;;